Главная страница
METAR-TAF:

METAR-TAF

Аэропорты :

Запорожье, Украина

широта: 47-52-02N, долгота: 035-18-59E, высота над уровнем моря: 114 м

Текущие метеонаблюдения

Эта сводка был подготовлена 49 минут назад, в 01:00 UTC
Ветер 4 Узел от восточно-северо-восточный
Температура 20°C
Влажность 56%
Давление 1011 hPa
Видимость 10 км и более
Нет облачности ниже 1500 м, и нет кучево-дождевой облачности

METAR: UKDE 220100Z 07002MPS CAVOK 20/11 Q1011 R02R/CLRD70 NOSIG

Время: 04:49 (01:49 UTC)

Прогноз

Эта сводка был подготовлена 2 часа и 47 минут назад, в 23:02 UTC
Прогноз действительный с 22-го 00 UTC до 22-го 09 UTC
Ветер 6 Узел от восточно-северо-восточный
Видимость 10 км и более
Нет облачности ниже 1500 м, и нет кучево-дождевой облачности

TAF: UKDE 212302Z 2200/2209 06003MPS CAVOK TX31/2209Z TN18/2202Z

Метеонаблюдения и прогнозы для более 4000 аэропортов (сводки METAR и TAF).

Имеющиеся станции представлены на карте желтыми и красными точками.

Чтобы увидеть название станции, наведите на нее мышь.

Затем щелкните, чтобы увидеть метеонаблюдения и метеопрогнозы.

Управление картой: чтобы увеличить масштаб, щелкните зеленые кнопки с черным крестиком; чтобы уменьшить масштаб, щелкните зеленую кнопку с тире; для просмотра соседних карт щелкайте зеленые стрелки.


METAR-TAF: